createdAt,value
2017-09-21T00:01:04.219Z,93.42
2017-09-21T00:03:31.968Z,93.53
2017-09-21T00:05:59.810Z,93.61
2017-09-21T00:08:27.586Z,93.41
2017-09-21T00:10:55.265Z,93.44
2017-09-21T00:13:23.040Z,93.38
2017-09-21T00:15:50.765Z,93.32
2017-09-21T00:18:18.481Z,93.02
2017-09-21T00:20:46.219Z,93.15
2017-09-21T00:23:13.982Z,93.18
2017-09-21T00:25:41.711Z,92.87
2017-09-21T00:28:09.387Z,93.57
2017-09-21T00:30:37.101Z,93.96
2017-09-21T00:33:04.861Z,93.51
2017-09-21T00:35:32.607Z,92.65
2017-09-21T00:38:00.400Z,92.24
2017-09-21T00:40:28.100Z,91.99
2017-09-21T00:42:55.830Z,92.25
2017-09-21T00:45:23.580Z,92.82
2017-09-21T00:47:51.337Z,93.10
2017-09-21T00:50:19.384Z,93.08
2017-09-21T00:52:47.073Z,94.07
2017-09-21T00:55:14.858Z,93.94
2017-09-21T00:57:42.567Z,93.48
2017-09-21T01:00:10.331Z,93.99
2017-09-21T01:02:38.077Z,93.60
2017-09-21T01:05:05.871Z,93.33
2017-09-21T01:07:33.633Z,92.84
2017-09-21T01:10:02.334Z,91.55
2017-09-21T01:12:30.112Z,91.67
2017-09-21T01:14:57.862Z,92.49
2017-09-21T01:17:26.114Z,92.46
2017-09-21T01:19:53.946Z,92.41
2017-09-21T01:22:21.694Z,92.33
2017-09-21T01:24:49.468Z,92.19
2017-09-21T01:27:17.283Z,92.19
2017-09-21T01:29:45.026Z,92.93
2017-09-21T01:32:12.830Z,93.34
2017-09-21T01:34:40.616Z,93.06
2017-09-21T01:37:08.462Z,93.15
2017-09-21T01:39:36.781Z,93.14
2017-09-21T01:42:04.571Z,93.48
2017-09-21T01:44:32.285Z,93.27
2017-09-21T01:47:00.134Z,93.34
2017-09-21T01:49:27.965Z,93.07
2017-09-21T01:51:55.718Z,92.84
2017-09-21T01:54:24.279Z,92.81
2017-09-21T01:56:52.018Z,92.59
2017-09-21T01:59:19.778Z,92.42
2017-09-21T02:01:47.698Z,92.87
2017-09-21T02:04:16.344Z,93.07
2017-09-21T02:06:44.041Z,92.88
2017-09-21T02:09:11.791Z,92.58
2017-09-21T02:11:39.583Z,92.64
2017-09-21T02:14:07.318Z,92.99
2017-09-21T02:16:35.068Z,92.96
2017-09-21T02:19:02.811Z,93.04
2017-09-21T02:21:31.852Z,92.99
2017-09-21T02:23:59.570Z,93.15
2017-09-21T02:26:29.133Z,92.97
2017-09-21T02:28:56.869Z,92.74
2017-09-21T02:31:24.650Z,92.82
2017-09-21T02:33:52.442Z,93.36
2017-09-21T02:36:20.139Z,93.16
2017-09-21T02:38:47.854Z,92.84
2017-09-21T02:41:15.569Z,92.85
2017-09-21T02:43:43.369Z,92.51
2017-09-21T02:46:12.855Z,93.07
2017-09-21T02:48:41.605Z,92.72
2017-09-21T02:51:09.336Z,93.06
2017-09-21T02:53:37.074Z,93.00
2017-09-21T02:56:06.794Z,93.14
2017-09-21T02:58:34.781Z,93.18
2017-09-21T03:01:02.831Z,93.38
2017-09-21T03:03:30.577Z,93.12
2017-09-21T03:05:58.289Z,92.98
2017-09-21T03:08:26.060Z,92.98
2017-09-21T03:10:53.783Z,92.98
2017-09-21T03:13:21.496Z,92.66
2017-09-21T03:15:49.254Z,93.04
2017-09-21T03:18:16.996Z,93.09
2017-09-21T03:20:44.766Z,92.80
2017-09-21T03:23:12.530Z,92.98
2017-09-21T03:25:40.307Z,92.74
2017-09-21T03:28:07.978Z,92.59
2017-09-21T03:30:35.665Z,92.73
2017-09-21T03:33:03.387Z,92.87
2017-09-21T03:35:31.063Z,92.76
2017-09-21T03:37:58.797Z,92.89
2017-09-21T03:40:26.485Z,92.85
2017-09-21T03:42:54.205Z,92.67
2017-09-21T03:45:21.893Z,92.81
2017-09-21T03:47:50.281Z,92.97
2017-09-21T03:50:18.200Z,93.67
2017-09-21T03:52:46.007Z,93.35
2017-09-21T03:55:14.697Z,93.73
2017-09-21T03:57:42.471Z,93.77
2017-09-21T04:00:10.238Z,93.26
2017-09-21T04:02:37.937Z,92.83
2017-09-21T04:05:05.727Z,93.05
2017-09-21T04:48:20.788Z,93.35
2017-09-21T04:50:49.169Z,92.54
2017-09-21T04:53:16.962Z,93.03
2017-09-21T04:55:45.290Z,93.19
2017-09-21T04:58:12.982Z,93.25
2017-09-21T05:00:40.775Z,93.08
2017-09-21T05:03:08.700Z,92.94
2017-09-21T05:05:36.526Z,92.81
2017-09-21T05:08:04.370Z,93.11
2017-09-21T05:10:32.077Z,93.23
2017-09-21T05:12:59.827Z,92.94
2017-09-21T05:15:27.571Z,92.75
2017-09-21T05:17:55.266Z,92.69
2017-09-21T05:20:22.995Z,92.49
2017-09-21T05:22:50.760Z,92.45
2017-09-21T05:25:18.473Z,92.30
2017-09-21T05:27:46.254Z,92.75
2017-09-21T05:30:13.966Z,92.45
2017-09-21T05:32:41.759Z,93.01
2017-09-21T05:35:09.628Z,92.67
2017-09-21T05:37:37.410Z,92.76
2017-09-21T05:40:05.152Z,92.89
2017-09-21T05:42:32.914Z,92.49
2017-09-21T05:45:00.744Z,92.66
2017-09-21T05:47:28.529Z,93.05
2017-09-21T05:49:56.371Z,93.01
2017-09-21T05:52:24.104Z,93.02
2017-09-21T05:54:51.849Z,93.45
2017-09-21T05:57:19.628Z,93.18
2017-09-21T05:59:47.366Z,93.27
2017-09-21T06:02:15.264Z,93.17
2017-09-21T06:04:42.986Z,93.54
2017-09-21T06:07:10.677Z,93.67
2017-09-21T06:09:38.546Z,93.94
2017-09-21T06:12:06.891Z,93.33
2017-09-21T06:14:35.643Z,93.45
2017-09-21T06:17:03.379Z,93.07
2017-09-21T06:19:31.789Z,92.62
2017-09-21T06:21:59.505Z,92.41
2017-09-21T06:24:27.277Z,92.11
2017-09-21T06:26:55.027Z,92.34
2017-09-21T06:29:22.784Z,92.52
2017-09-21T06:31:51.605Z,91.16
2017-09-21T06:34:19.320Z,91.10
2017-09-21T06:36:47.026Z,91.51
2017-09-21T06:39:15.528Z,91.61
2017-09-21T06:41:43.360Z,91.31
2017-09-21T06:44:11.123Z,91.82
2017-09-21T06:46:38.880Z,91.55
2017-09-21T06:49:06.601Z,91.68
2017-09-21T06:51:34.360Z,91.32
2017-09-21T06:54:02.103Z,90.96
2017-09-21T06:56:30.104Z,89.79
2017-09-21T06:58:57.838Z,90.94
2017-09-21T07:01:25.723Z,90.15
2017-09-21T07:03:54.608Z,90.06
2017-09-21T07:06:22.569Z,89.70
2017-09-21T07:08:50.304Z,89.71
2017-09-21T07:11:18.136Z,90.03
2017-09-21T07:13:45.995Z,89.27
2017-09-21T07:16:13.728Z,89.50
2017-09-21T07:18:41.424Z,88.70
2017-09-21T07:21:09.188Z,88.62
2017-09-21T07:23:37.830Z,88.96
2017-09-21T07:26:05.679Z,88.76
2017-09-21T07:28:33.410Z,88.15
2017-09-21T07:31:01.122Z,85.92
2017-09-21T07:33:28.955Z,84.59
2017-09-21T07:35:56.886Z,87.03
2017-09-21T07:38:25.329Z,87.39
2017-09-21T07:40:53.105Z,87.44
2017-09-21T07:43:21.897Z,87.54
2017-09-21T07:45:49.679Z,86.52
2017-09-21T07:48:17.403Z,83.40
2017-09-21T07:50:45.222Z,85.70
2017-09-21T07:53:13.193Z,86.50
2017-09-21T07:55:41.196Z,86.78
2017-09-21T07:58:09.116Z,85.20
2017-09-21T08:00:37.091Z,85.74
2017-09-21T08:03:04.892Z,83.96
2017-09-21T08:05:32.835Z,85.00
2017-09-21T08:08:00.747Z,85.75
2017-09-21T08:10:28.525Z,85.71
2017-09-21T08:12:56.318Z,86.29
2017-09-21T08:15:24.128Z,85.79
2017-09-21T08:17:52.054Z,86.70
2017-09-21T08:20:20.562Z,86.38
2017-09-21T08:22:48.365Z,86.14
2017-09-21T08:30:42.085Z,87.51
2017-09-21T08:33:10.959Z,87.66
2017-09-21T08:35:38.673Z,87.96
2017-09-21T08:38:07.237Z,87.81
2017-09-21T08:40:47.779Z,87.65
2017-09-21T08:46:30.429Z,86.69
2017-09-21T08:49:01.064Z,87.21
2017-09-21T08:51:31.785Z,85.62
2017-09-21T08:54:07.258Z,83.77
2017-09-21T08:56:34.977Z,84.48
2017-09-21T08:59:02.748Z,84.19
2017-09-21T09:01:30.660Z,82.42
2017-09-21T09:03:58.364Z,82.36
2017-09-21T09:06:26.130Z,82.94
2017-09-21T09:08:53.926Z,84.25
2017-09-21T09:11:21.636Z,81.19
2017-09-21T09:13:49.589Z,80.33
2017-09-21T09:16:17.435Z,81.26
2017-09-21T09:18:45.243Z,84.13
2017-09-21T09:21:13.021Z,82.52
2017-09-21T09:23:40.778Z,81.43
2017-09-21T09:26:08.697Z,82.51
2017-09-21T09:28:36.424Z,81.76
2017-09-21T09:31:05.110Z,81.06
2017-09-21T09:33:32.945Z,84.63
2017-09-21T09:36:00.633Z,83.90
2017-09-21T09:38:28.412Z,81.02
2017-09-21T09:40:56.134Z,82.14
2017-09-21T09:43:23.855Z,81.69
2017-09-21T09:45:51.682Z,82.54
2017-09-21T09:48:19.442Z,81.03
2017-09-21T09:50:47.169Z,81.89
2017-09-21T09:53:14.916Z,81.51
2017-09-21T09:55:42.641Z,81.29
2017-09-21T09:58:10.495Z,82.96
2017-09-21T10:00:38.285Z,81.29
2017-09-21T10:03:06.013Z,81.63
2017-09-21T10:05:33.782Z,82.27
2017-09-21T10:08:01.474Z,81.12
2017-09-21T10:10:29.274Z,81.05
2017-09-21T10:12:57.049Z,79.34
2017-09-21T10:15:25.889Z,79.76
2017-09-21T10:17:53.669Z,79.97
2017-09-21T10:20:21.715Z,79.58
2017-09-21T10:22:49.535Z,79.29
2017-09-21T10:25:17.436Z,79.83
2017-09-21T10:27:45.309Z,79.32
2017-09-21T10:30:13.011Z,80.00
2017-09-21T10:32:40.717Z,80.35
2017-09-21T10:35:08.496Z,81.36
2017-09-21T10:37:36.288Z,79.86
2017-09-21T10:40:04.090Z,77.91
2017-09-21T10:42:32.773Z,80.78
2017-09-21T10:45:01.534Z,78.51
2017-09-21T10:47:30.035Z,79.88
2017-09-21T10:49:57.827Z,79.84
2017-09-21T10:52:27.992Z,78.51
2017-09-21T10:54:55.817Z,78.04
2017-09-21T10:57:23.645Z,78.63
2017-09-21T10:59:51.359Z,79.00
2017-09-21T11:02:19.141Z,78.83
2017-09-21T11:04:49.099Z,78.82
2017-09-21T11:07:16.983Z,78.89
2017-09-21T11:09:46.028Z,77.10
2017-09-21T11:12:13.798Z,77.96
2017-09-21T11:14:41.547Z,77.08
2017-09-21T11:17:09.291Z,77.92
2017-09-21T11:19:37.108Z,75.88
2017-09-21T11:22:07.261Z,78.66
2017-09-21T11:24:35.830Z,77.63
2017-09-21T11:27:03.753Z,77.03
2017-09-21T11:29:35.100Z,77.54
2017-09-21T11:32:02.925Z,72.04
2017-09-21T11:34:30.662Z,75.23
2017-09-21T11:36:58.451Z,78.91
2017-09-21T11:39:26.269Z,80.57
2017-09-21T11:41:54.037Z,77.82
2017-09-21T11:44:21.824Z,78.26
2017-09-21T11:46:49.853Z,77.99
2017-09-21T11:49:21.431Z,77.21
2017-09-21T11:51:49.317Z,76.51
2017-09-21T11:54:18.839Z,74.68
2017-09-21T11:56:46.539Z,76.83
2017-09-21T11:59:14.427Z,78.22
2017-09-21T12:01:42.164Z,77.56
2017-09-21T12:04:10.028Z,78.61
2017-09-21T12:06:37.748Z,76.94
2017-09-21T12:09:05.565Z,78.28
2017-09-21T12:11:33.296Z,78.26
2017-09-21T12:14:01.103Z,77.32
2017-09-21T12:16:29.167Z,76.88
2017-09-21T12:18:59.545Z,76.73
2017-09-21T12:21:27.784Z,75.40
2017-09-21T12:23:55.493Z,78.32
2017-09-21T12:26:23.436Z,76.23
2017-09-21T12:28:51.279Z,77.23
2017-09-21T12:31:19.177Z,76.83
2017-09-21T12:33:46.968Z,75.11
2017-09-21T12:36:15.778Z,75.65
2017-09-21T12:38:43.533Z,81.27
2017-09-21T12:41:11.664Z,80.15
2017-09-21T12:43:39.367Z,77.16
2017-09-21T12:46:08.112Z,76.51
2017-09-21T12:48:36.939Z,76.54
2017-09-21T12:51:06.245Z,75.35
2017-09-21T12:53:33.982Z,75.01
2017-09-21T12:56:02.296Z,77.25
2017-09-21T12:58:30.201Z,77.92
2017-09-21T13:00:58.128Z,75.49
2017-09-21T13:03:26.809Z,77.12
2017-09-21T13:05:55.324Z,76.28
2017-09-21T13:08:23.565Z,76.16
2017-09-21T13:10:53.079Z,76.17
2017-09-21T13:13:20.922Z,76.75
2017-09-21T13:15:48.670Z,79.12
2017-09-21T13:18:17.605Z,76.14
2017-09-21T13:20:45.496Z,76.43
2017-09-21T13:23:13.301Z,78.16
2017-09-21T13:25:41.717Z,78.29
2017-09-21T13:28:09.548Z,78.47
2017-09-21T13:30:37.692Z,80.15
2017-09-21T13:33:06.180Z,77.73
2017-09-21T13:35:34.001Z,77.60
2017-09-21T13:38:03.209Z,78.86
2017-09-21T13:40:31.530Z,77.00
2017-09-21T13:42:59.628Z,77.51
2017-09-21T13:45:27.722Z,75.04
2017-09-21T13:47:55.511Z,74.29
2017-09-21T13:50:23.326Z,76.15
2017-09-21T13:52:53.017Z,75.23
2017-09-21T13:55:21.051Z,73.53
2017-09-21T13:57:48.924Z,71.25
2017-09-21T14:00:16.752Z,72.94
2017-09-21T14:02:44.571Z,75.47
2017-09-21T14:05:13.331Z,75.53
2017-09-21T14:07:41.419Z,75.59
2017-09-21T14:10:09.556Z,79.18
2017-09-21T14:12:37.489Z,75.51
2017-09-21T14:15:05.371Z,74.50
2017-09-21T14:17:33.174Z,77.20
2017-09-21T14:20:01.076Z,76.33
2017-09-21T14:22:28.832Z,77.55
2017-09-21T14:24:56.729Z,72.67
2017-09-21T14:27:24.506Z,73.35
2017-09-21T14:29:53.097Z,74.46
2017-09-21T14:32:20.899Z,75.10
2017-09-21T14:34:48.744Z,79.42
2017-09-21T14:37:17.355Z,79.35
2017-09-21T14:39:46.261Z,80.65
2017-09-21T14:42:14.137Z,80.60
2017-09-21T14:44:42.680Z,81.06
2017-09-21T14:47:11.650Z,80.82
2017-09-21T14:49:39.490Z,82.13
2017-09-21T14:52:07.313Z,82.29
2017-09-21T14:54:35.441Z,82.36
2017-09-21T14:57:03.809Z,77.59
2017-09-21T14:59:32.841Z,79.04
2017-09-21T15:02:03.123Z,80.85
2017-09-21T15:04:31.601Z,83.32
2017-09-21T15:06:59.339Z,82.75
2017-09-21T15:09:27.210Z,82.57
2017-09-21T15:11:55.160Z,82.86
2017-09-21T15:14:22.869Z,83.84
2017-09-21T15:16:51.414Z,84.31
2017-09-21T15:19:19.284Z,84.37
2017-09-21T15:21:47.052Z,84.70
2017-09-21T15:24:15.630Z,83.67
2017-09-21T15:26:43.707Z,83.46
2017-09-21T15:29:12.655Z,83.70
2017-09-21T15:31:40.810Z,83.36
2017-09-21T15:34:09.639Z,82.97
2017-09-21T15:36:37.988Z,83.53
2017-09-21T15:39:05.833Z,84.36
2017-09-21T15:41:34.259Z,85.03
2017-09-21T15:44:03.650Z,83.89
2017-09-21T15:46:31.578Z,83.65
2017-09-21T15:48:59.471Z,82.55
2017-09-21T15:51:28.106Z,83.84
2017-09-21T15:53:56.908Z,84.98
2017-09-21T15:56:24.817Z,84.02
2017-09-21T15:58:52.589Z,84.29
2017-09-21T16:01:20.458Z,84.70
2017-09-21T16:03:48.347Z,85.23
2017-09-21T16:06:17.233Z,85.72
2017-09-21T16:08:46.704Z,85.16
2017-09-21T16:11:15.329Z,85.55
2017-09-21T16:13:43.498Z,85.35
2017-09-21T16:16:11.439Z,86.16
2017-09-21T16:18:39.475Z,84.55
2017-09-21T16:21:08.132Z,85.58
2017-09-21T16:23:37.341Z,86.43
2017-09-21T16:26:06.091Z,86.09
2017-09-21T16:28:33.851Z,86.59
2017-09-21T16:31:01.651Z,85.78
2017-09-21T16:33:29.530Z,85.09
2017-09-21T16:35:57.879Z,84.82
2017-09-21T16:38:26.528Z,84.44
2017-09-21T16:40:55.537Z,85.47
2017-09-21T16:43:24.292Z,85.42
2017-09-21T16:45:53.299Z,84.96
2017-09-21T16:48:21.196Z,85.38
2017-09-21T16:50:49.144Z,85.68
2017-09-21T16:53:17.018Z,85.27
2017-09-21T16:55:45.077Z,85.21
2017-09-21T16:58:12.865Z,85.41
2017-09-21T17:00:40.807Z,84.82
2017-09-21T17:03:08.631Z,85.35
2017-09-21T17:05:37.612Z,85.50
2017-09-21T17:08:05.700Z,85.56
2017-09-21T17:10:35.108Z,85.45
2017-09-21T17:13:02.984Z,85.01
2017-09-21T17:15:30.899Z,85.57
2017-09-21T17:17:59.011Z,85.37
2017-09-21T17:20:26.828Z,85.79
2017-09-21T17:22:54.827Z,85.82
2017-09-21T17:25:23.217Z,85.77
2017-09-21T17:27:51.849Z,85.81
2017-09-21T17:30:19.634Z,86.11
2017-09-21T17:32:47.482Z,86.31
2017-09-21T17:35:15.297Z,86.46
2017-09-21T17:37:43.279Z,86.48
2017-09-21T17:40:11.467Z,86.69
2017-09-21T17:42:39.260Z,86.96
2017-09-21T17:45:08.138Z,87.16
2017-09-21T17:47:37.214Z,86.81
2017-09-21T17:50:05.043Z,87.21
2017-09-21T17:52:32.932Z,86.34
2017-09-21T17:55:01.460Z,86.93
2017-09-21T17:57:29.288Z,87.18
2017-09-21T17:59:57.385Z,87.43
2017-09-21T18:02:26.040Z,87.62
2017-09-21T18:04:53.910Z,87.80
2017-09-21T18:07:21.765Z,87.29
2017-09-21T18:09:49.652Z,87.16
2017-09-21T18:12:17.446Z,87.52
2017-09-21T18:14:45.584Z,86.72
2017-09-21T18:17:14.297Z,86.72
2017-09-21T18:19:43.142Z,86.99
2017-09-21T18:22:10.982Z,86.73
2017-09-21T18:24:38.809Z,87.62
2017-09-21T18:27:06.710Z,87.26
2017-09-21T18:29:34.861Z,87.01
2017-09-21T18:32:03.016Z,86.61
2017-09-21T18:34:30.852Z,86.88
2017-09-21T18:36:58.804Z,86.48
2017-09-21T18:39:26.621Z,87.54
2017-09-21T18:41:55.074Z,87.18
2017-09-21T18:44:23.136Z,86.91
2017-09-21T18:46:53.890Z,86.98
2017-09-21T18:49:21.732Z,87.29
2017-09-21T18:51:50.586Z,87.92
2017-09-21T18:54:19.644Z,88.03
2017-09-21T18:56:48.454Z,87.86
2017-09-21T18:59:16.449Z,88.18
2017-09-21T19:01:46.949Z,88.17
2017-09-21T19:04:15.123Z,88.06
2017-09-21T19:06:43.537Z,88.13
2017-09-21T19:09:11.474Z,87.58
2017-09-21T19:11:39.588Z,88.36
2017-09-21T19:14:07.530Z,88.24
2017-09-21T19:16:36.166Z,88.17
2017-09-21T19:19:04.000Z,88.43
2017-09-21T19:21:31.832Z,88.32
2017-09-21T19:24:01.987Z,88.53
2017-09-21T19:26:30.775Z,88.73
2017-09-21T19:29:00.838Z,88.95
2017-09-21T19:31:29.924Z,89.64
2017-09-21T19:33:59.269Z,89.32
2017-09-21T19:36:27.742Z,89.04
2017-09-21T19:38:56.454Z,88.91
2017-09-21T19:41:24.333Z,89.09
2017-09-21T19:43:52.309Z,89.03
2017-09-21T19:46:21.032Z,88.62
2017-09-21T19:48:50.689Z,88.43
2017-09-21T19:51:18.871Z,88.40
2017-09-21T19:53:47.197Z,88.57
2017-09-21T19:56:17.574Z,88.49
2017-09-21T19:58:45.634Z,88.63
2017-09-21T20:01:14.112Z,88.85
2017-09-21T20:03:44.209Z,87.95
2017-09-21T20:06:13.306Z,88.38
2017-09-21T20:08:41.335Z,88.63
2017-09-21T20:11:09.184Z,88.68
2017-09-21T20:13:37.760Z,89.15
2017-09-21T20:16:05.879Z,88.87
2017-09-21T20:18:33.670Z,88.79
2017-09-21T20:21:01.537Z,88.57
2017-09-21T20:23:29.433Z,88.66
2017-09-21T20:28:57.871Z,89.50
2017-09-21T20:31:26.260Z,89.43
2017-09-21T20:33:54.139Z,88.87
2017-09-21T20:36:21.993Z,88.54
2017-09-21T20:38:54.100Z,88.56
2017-09-21T20:41:24.540Z,88.36
2017-09-21T20:43:52.520Z,89.07
2017-09-21T20:46:20.365Z,89.08
2017-09-21T20:48:48.127Z,88.59
2017-09-21T20:51:17.255Z,88.40
2017-09-21T20:53:47.042Z,88.85
2017-09-21T20:56:14.822Z,89.34
2017-09-21T20:58:42.758Z,89.30
2017-09-21T21:01:10.562Z,89.51
2017-09-21T21:03:38.982Z,89.17
2017-09-21T21:06:06.820Z,89.23
2017-09-21T21:08:34.700Z,89.24
2017-09-21T21:11:02.523Z,89.47
2017-09-21T21:13:30.320Z,90.13
2017-09-21T21:15:58.209Z,89.94
2017-09-21T21:18:25.963Z,89.28
2017-09-21T21:20:53.755Z,89.67
2017-09-21T21:23:21.559Z,89.58
2017-09-21T21:25:49.293Z,89.12
2017-09-21T21:28:17.225Z,88.81
2017-09-21T21:30:45.079Z,88.87
2017-09-21T21:33:13.667Z,89.22
2017-09-21T21:35:41.503Z,89.09
2017-09-21T21:38:10.674Z,89.58
2017-09-21T21:40:38.453Z,89.91
2017-09-21T21:43:06.416Z,89.93
2017-09-21T21:45:34.186Z,89.83
2017-09-21T21:48:01.949Z,89.46
2017-09-21T21:50:29.683Z,89.32
2017-09-21T21:52:57.548Z,89.17
2017-09-21T21:55:25.256Z,89.72
2017-09-21T21:57:53.050Z,90.33
2017-09-21T22:00:21.771Z,90.52
2017-09-21T22:02:49.576Z,90.53
2017-09-21T22:05:17.477Z,90.63
2017-09-21T22:07:45.197Z,89.92
2017-09-21T22:10:12.981Z,89.57
2017-09-21T22:12:40.794Z,89.83
2017-09-21T22:15:08.498Z,89.77
2017-09-21T22:17:36.417Z,89.43
2017-09-21T22:20:04.196Z,89.48
2017-09-21T22:22:31.912Z,89.78
2017-09-21T22:25:02.081Z,90.80
2017-09-21T22:27:29.895Z,90.74
2017-09-21T22:29:57.724Z,90.12
2017-09-21T22:32:26.421Z,89.71
2017-09-21T22:34:54.200Z,89.86
2017-09-21T22:37:22.246Z,90.10
2017-09-21T22:39:50.388Z,89.81
2017-09-21T22:42:18.980Z,89.78
2017-09-21T22:44:46.944Z,89.89
2017-09-21T22:47:16.884Z,89.98
2017-09-21T22:49:44.749Z,90.28
2017-09-21T22:52:12.690Z,90.22
2017-09-21T22:54:40.668Z,90.27
2017-09-21T22:57:08.447Z,90.10
2017-09-21T22:59:40.020Z,90.18
2017-09-21T23:02:08.704Z,90.16
2017-09-21T23:04:36.594Z,90.71
2017-09-21T23:07:04.530Z,90.39
2017-09-21T23:09:33.274Z,90.35
2017-09-21T23:12:02.188Z,90.08
2017-09-21T23:14:30.065Z,89.91
2017-09-21T23:16:58.162Z,89.28
2017-09-21T23:19:26.062Z,89.29
2017-09-21T23:21:53.930Z,91.24
2017-09-21T23:24:21.904Z,90.53
2017-09-21T23:26:49.776Z,90.06
2017-09-21T23:29:17.845Z,89.88
2017-09-21T23:31:46.558Z,89.54
2017-09-21T23:34:15.690Z,89.65
2017-09-21T23:36:44.118Z,90.33
2017-09-21T23:39:11.989Z,90.56
2017-09-21T23:41:40.837Z,91.40
2017-09-21T23:44:08.733Z,90.82
2017-09-21T23:46:39.371Z,90.49
2017-09-21T23:49:07.304Z,90.62
2017-09-21T23:51:35.275Z,90.72
2017-09-21T23:54:03.127Z,90.89
2017-09-21T23:56:31.008Z,91.09
2017-09-21T23:58:58.866Z,91.15
